createdAt,value
2018-09-26T00:01:11.374Z,2.00
2018-09-26T00:03:43.661Z,1.60
2018-09-26T00:06:11.623Z,2.13
2018-09-26T00:08:39.571Z,1.60
2018-09-26T00:11:07.593Z,2.20
2018-09-26T00:13:35.509Z,2.17
2018-09-26T00:16:03.449Z,1.33
2018-09-26T00:18:31.360Z,1.60
2018-09-26T00:20:59.975Z,2.10
2018-09-26T00:23:27.900Z,1.70
2018-09-26T00:25:56.374Z,2.50
2018-09-26T00:28:24.397Z,1.93
2018-09-26T00:30:52.612Z,2.13
2018-09-26T00:33:20.697Z,1.40
2018-09-26T00:35:48.878Z,2.87
2018-09-26T00:38:17.008Z,2.43
2018-09-26T00:40:45.404Z,2.63
2018-09-26T00:43:13.447Z,1.77
2018-09-26T00:45:41.740Z,1.80
2018-09-26T00:48:09.840Z,1.97
2018-09-26T00:50:37.760Z,2.03
2018-09-26T00:53:05.737Z,2.03
2018-09-26T00:55:33.682Z,1.80
2018-09-26T00:58:01.633Z,1.67
2018-09-26T01:00:29.632Z,2.03
2018-09-26T01:02:57.541Z,2.10
2018-09-26T01:05:25.505Z,1.87
2018-09-26T01:07:53.999Z,5.80
2018-09-26T01:10:22.417Z,2.20
2018-09-26T01:12:50.740Z,2.27
2018-09-26T01:15:18.849Z,1.43
2018-09-26T01:17:47.073Z,2.03
2018-09-26T01:20:15.184Z,2.57
2018-09-26T01:22:43.176Z,2.70
2018-09-26T01:25:11.243Z,2.03
2018-09-26T01:27:39.273Z,1.80
2018-09-26T01:30:07.259Z,2.03
2018-09-26T01:32:35.189Z,2.10
2018-09-26T01:35:03.429Z,1.77
2018-09-26T01:37:31.412Z,2.23
2018-09-26T01:39:59.802Z,2.50
2018-09-26T01:42:28.129Z,2.00
2018-09-26T01:44:56.271Z,2.20
2018-09-26T01:47:24.805Z,1.77
2018-09-26T01:49:52.807Z,2.13
2018-09-26T01:52:20.995Z,2.53
2018-09-26T01:54:49.229Z,2.33
2018-09-26T01:57:17.380Z,2.30
2018-09-26T01:59:45.437Z,2.27
2018-09-26T02:02:13.461Z,2.00
2018-09-26T02:04:41.483Z,2.50
2018-09-26T02:07:09.475Z,1.93
2018-09-26T02:09:37.419Z,3.80
2018-09-26T02:12:05.356Z,2.27
2018-09-26T02:14:33.252Z,2.13
2018-09-26T02:17:01.185Z,2.73
2018-09-26T02:19:29.143Z,2.83
2018-09-26T02:21:57.578Z,2.70
2018-09-26T02:24:25.520Z,2.60
2018-09-26T02:26:53.528Z,1.90
2018-09-26T02:29:21.535Z,4.10
2018-09-26T02:31:49.781Z,2.80
2018-09-26T02:34:18.065Z,2.63
2018-09-26T02:36:46.272Z,2.57
2018-09-26T02:39:14.212Z,3.10
2018-09-26T02:41:42.236Z,2.40
2018-09-26T02:44:10.529Z,2.47
2018-09-26T02:46:38.462Z,2.90
2018-09-26T02:49:07.277Z,2.40
2018-09-26T02:51:38.000Z,2.20
2018-09-26T02:54:06.581Z,2.60
2018-09-26T02:56:34.516Z,2.17
2018-09-26T02:59:02.476Z,1.87
2018-09-26T03:01:30.407Z,1.90
2018-09-26T03:03:58.414Z,1.83
2018-09-26T03:06:26.445Z,2.30
2018-09-26T03:08:54.425Z,2.77
2018-09-26T03:11:22.454Z,2.90
2018-09-26T03:13:50.533Z,2.03
2018-09-26T03:16:18.614Z,4.80
2018-09-26T03:18:46.554Z,2.80
2018-09-26T03:21:14.509Z,3.30
2018-09-26T03:23:42.534Z,2.87
2018-09-26T03:26:10.583Z,5.40
2018-09-26T03:28:38.711Z,2.23
2018-09-26T03:31:06.886Z,2.00
2018-09-26T03:33:34.903Z,2.97
2018-09-26T03:36:02.788Z,2.37
2018-09-26T03:38:30.784Z,3.57
2018-09-26T03:40:58.719Z,2.13
2018-09-26T03:43:26.689Z,2.90
2018-09-26T03:45:54.699Z,2.40
2018-09-26T03:48:22.713Z,2.50
2018-09-26T03:50:50.788Z,2.30
2018-09-26T03:53:18.908Z,2.47
2018-09-26T03:55:46.948Z,2.80
2018-09-26T03:58:15.048Z,2.47
2018-09-26T04:00:43.117Z,2.77
2018-09-26T04:03:11.244Z,2.70
2018-09-26T04:05:39.228Z,2.57
2018-09-26T04:08:07.237Z,2.40
2018-09-26T04:10:35.184Z,3.07
2018-09-26T04:13:03.210Z,2.50
2018-09-26T04:15:31.195Z,2.47
2018-09-26T04:17:59.124Z,2.33
2018-09-26T04:20:27.175Z,2.70
2018-09-26T04:22:55.597Z,2.60
2018-09-26T04:25:23.642Z,2.93
2018-09-26T04:27:52.432Z,3.37
2018-09-26T04:30:20.555Z,2.50
2018-09-26T04:32:48.705Z,1.80
2018-09-26T04:35:16.928Z,2.50
2018-09-26T04:37:45.024Z,1.70
2018-09-26T04:42:47.732Z,2.40
2018-09-26T04:45:16.867Z,3.33
2018-09-26T04:47:44.848Z,2.27
2018-09-26T04:50:12.858Z,2.67
2018-09-26T04:52:40.801Z,2.80
2018-09-26T04:55:08.791Z,2.60
2018-09-26T04:57:36.744Z,3.13
2018-09-26T05:00:04.879Z,2.90
2018-09-26T05:02:32.814Z,2.90
2018-09-26T05:05:01.261Z,2.50
2018-09-26T05:07:29.264Z,3.40
2018-09-26T05:09:57.196Z,2.70
2018-09-26T05:12:25.256Z,2.20
2018-09-26T05:14:53.495Z,2.70
2018-09-26T05:17:21.549Z,3.27
2018-09-26T05:19:50.161Z,3.00
2018-09-26T05:22:20.249Z,3.33
2018-09-26T05:24:48.506Z,2.20
2018-09-26T05:27:17.898Z,3.70
2018-09-26T05:29:46.874Z,3.33
2018-09-26T05:32:15.316Z,2.90
2018-09-26T05:34:43.276Z,3.50
2018-09-26T05:37:11.295Z,2.93
2018-09-26T05:39:39.297Z,4.33
2018-09-26T05:42:07.360Z,4.33
2018-09-26T05:44:35.425Z,2.80
2018-09-26T05:47:03.466Z,3.07
2018-09-26T05:49:32.068Z,3.37
2018-09-26T05:51:59.980Z,3.27
2018-09-26T05:54:27.913Z,3.53
2018-09-26T05:56:56.017Z,3.50
2018-09-26T05:59:24.068Z,4.17
2018-09-26T06:01:52.197Z,3.40
2018-09-26T06:04:20.562Z,3.00
2018-09-26T06:06:48.640Z,5.70
2018-09-26T06:09:16.956Z,3.60
2018-09-26T06:11:45.029Z,4.53
2018-09-26T06:14:13.894Z,3.43
2018-09-26T06:16:41.945Z,4.40
2018-09-26T06:19:10.865Z,5.30
2018-09-26T06:21:39.499Z,4.00
2018-09-26T06:24:08.317Z,3.27
2018-09-26T06:26:36.437Z,4.70
2018-09-26T06:29:04.921Z,4.57
2018-09-26T06:31:32.959Z,4.00
2018-09-26T06:34:01.052Z,3.67
2018-09-26T06:36:30.239Z,4.13
2018-09-26T06:38:58.270Z,3.77
2018-09-26T06:41:26.455Z,3.40
2018-09-26T06:43:54.911Z,4.20
2018-09-26T06:46:23.413Z,3.40
2018-09-26T06:48:51.564Z,4.03
2018-09-26T06:51:19.622Z,4.17
2018-09-26T06:53:47.721Z,3.50
2018-09-26T06:56:15.896Z,3.70
2018-09-26T06:58:43.922Z,4.20
2018-09-26T07:01:12.307Z,5.93
2018-09-26T07:03:40.556Z,4.00
2018-09-26T07:06:08.627Z,3.70
2018-09-26T07:08:36.635Z,4.20
2018-09-26T07:11:04.830Z,27.73
2018-09-26T07:13:33.036Z,2.40
2018-09-26T07:16:01.100Z,3.43
2018-09-26T07:18:29.156Z,3.30
2018-09-26T07:20:57.294Z,3.90
2018-09-26T07:23:25.386Z,3.00
2018-09-26T07:25:54.608Z,3.90
2018-09-26T07:28:22.809Z,3.40
2018-09-26T07:30:51.095Z,2.77
2018-09-26T07:33:19.361Z,3.27
2018-09-26T07:35:47.682Z,3.07
2018-09-26T07:38:15.803Z,4.50
2018-09-26T07:40:43.994Z,2.77
2018-09-26T07:43:12.139Z,3.63
2018-09-26T07:45:40.190Z,4.30
2018-09-26T07:48:08.360Z,2.37
2018-09-26T07:50:36.582Z,3.63
2018-09-26T07:53:04.742Z,3.37
2018-09-26T07:55:32.685Z,3.30
2018-09-26T07:58:00.841Z,3.10
2018-09-26T08:00:28.942Z,2.60
2018-09-26T08:02:57.148Z,3.57
2018-09-26T08:05:25.289Z,4.63
2018-09-26T08:07:53.501Z,2.80
2018-09-26T08:10:21.589Z,9.43
2018-09-26T08:12:49.855Z,2.93
2018-09-26T08:15:18.042Z,2.83
2018-09-26T08:17:47.279Z,3.83
2018-09-26T08:20:15.541Z,3.47
2018-09-26T08:22:43.608Z,2.73
2018-09-26T08:25:11.830Z,2.83
2018-09-26T08:27:39.892Z,3.07
2018-09-26T08:30:07.906Z,4.40
2018-09-26T08:32:35.905Z,2.93
2018-09-26T08:35:04.048Z,3.97
2018-09-26T08:37:32.029Z,2.30
2018-09-26T08:40:00.563Z,3.47
2018-09-26T08:42:28.766Z,3.30
2018-09-26T08:44:57.056Z,3.50
2018-09-26T08:47:25.225Z,3.27
2018-09-26T08:49:53.455Z,2.80
2018-09-26T08:52:21.762Z,3.73
2018-09-26T08:54:51.255Z,3.20
2018-09-26T08:57:19.996Z,2.70
2018-09-26T08:59:53.131Z,3.30
2018-09-26T09:02:21.332Z,2.70
2018-09-26T09:04:51.751Z,3.27
2018-09-26T09:07:20.852Z,3.40
2018-09-26T09:09:49.266Z,2.90
2018-09-26T09:12:17.596Z,2.93
2018-09-26T09:14:46.739Z,3.40
2018-09-26T09:17:14.855Z,2.93
2018-09-26T09:19:42.969Z,2.80
2018-09-26T09:22:17.698Z,2.60
2018-09-26T09:24:45.984Z,3.00
2018-09-26T09:27:14.037Z,2.50
2018-09-26T09:29:43.572Z,4.10
2018-09-26T09:32:12.154Z,3.43
2018-09-26T09:34:40.819Z,2.60
2018-09-26T09:37:10.098Z,2.80
2018-09-26T09:39:38.281Z,2.20
2018-09-26T09:42:06.725Z,3.10
2018-09-26T09:44:34.796Z,2.80
2018-09-26T09:47:02.771Z,3.20
2018-09-26T09:49:31.200Z,2.80
2018-09-26T09:51:59.497Z,3.00
2018-09-26T09:54:27.764Z,3.23
2018-09-26T09:56:56.848Z,2.50
2018-09-26T09:59:25.206Z,3.47
2018-09-26T10:01:53.408Z,2.10
2018-09-26T10:04:21.535Z,3.13
2018-09-26T10:06:50.094Z,2.33
2018-09-26T10:09:20.083Z,2.60
2018-09-26T10:11:48.517Z,3.40
2018-09-26T10:14:17.525Z,3.00
2018-09-26T10:16:45.955Z,2.70
2018-09-26T10:19:14.248Z,2.80
2018-09-26T10:21:43.015Z,3.10
2018-09-26T10:24:11.454Z,3.10
2018-09-26T10:26:39.566Z,2.10
2018-09-26T10:29:07.802Z,2.57
2018-09-26T10:31:35.839Z,2.17
2018-09-26T10:34:04.741Z,3.70
2018-09-26T10:36:34.126Z,3.03
2018-09-26T10:39:14.356Z,2.77
2018-09-26T10:41:46.641Z,2.13
2018-09-26T10:44:16.270Z,1.97
2018-09-26T10:46:46.604Z,2.00
2018-09-26T10:49:15.180Z,2.17
2018-09-26T10:51:44.371Z,2.70
2018-09-26T10:54:12.538Z,2.63
2018-09-26T10:56:42.867Z,2.30
2018-09-26T10:59:11.261Z,2.83
2018-09-26T11:01:39.478Z,2.63
2018-09-26T11:04:08.171Z,2.07
2018-09-26T11:06:36.176Z,2.60
2018-09-26T11:09:05.709Z,2.40
2018-09-26T11:11:33.969Z,2.77
2018-09-26T11:14:02.015Z,1.93
2018-09-26T11:16:30.593Z,2.00
2018-09-26T11:18:58.652Z,2.50
2018-09-26T11:21:26.851Z,3.57
2018-09-26T11:23:55.763Z,2.80
2018-09-26T11:26:24.216Z,2.63
2018-09-26T11:28:52.481Z,2.07
2018-09-26T11:31:21.156Z,2.13
2018-09-26T11:33:49.692Z,2.77
2018-09-26T11:36:18.210Z,3.17
2018-09-26T11:38:46.742Z,2.30
2018-09-26T11:41:17.987Z,2.70
2018-09-26T11:43:51.186Z,2.57
2018-09-26T11:49:06.135Z,2.17
2018-09-26T11:51:34.880Z,2.43
2018-09-26T11:54:03.444Z,3.00
2018-09-26T11:56:31.635Z,3.00
2018-09-26T11:59:02.988Z,2.87
2018-09-26T12:01:31.007Z,3.03
2018-09-26T12:04:03.620Z,2.10
2018-09-26T12:06:31.821Z,3.40
2018-09-26T12:08:59.862Z,2.80
2018-09-26T12:11:28.014Z,3.63
2018-09-26T12:14:01.330Z,4.13
2018-09-26T12:16:29.749Z,3.83
2018-09-26T12:21:35.200Z,3.30
2018-09-26T12:24:08.464Z,2.73
2018-09-26T12:26:36.691Z,3.33
2018-09-26T12:29:04.865Z,3.27
2018-09-26T12:31:33.123Z,2.20
2018-09-26T12:34:07.989Z,2.80
2018-09-26T12:36:36.281Z,2.00
2018-09-26T12:39:06.868Z,2.23
2018-09-26T12:41:35.269Z,3.73
2018-09-26T12:44:03.538Z,3.27
2018-09-26T12:46:31.682Z,2.80
2018-09-26T12:48:59.853Z,2.50
2018-09-26T12:51:30.816Z,2.63
2018-09-26T12:56:43.253Z,3.17
2018-09-26T12:59:17.032Z,2.90
2018-09-26T13:01:49.629Z,2.20
2018-09-26T13:04:18.784Z,2.43
2018-09-26T13:06:49.982Z,3.50
2018-09-26T13:09:18.554Z,3.23
2018-09-26T13:14:31.576Z,3.77
2018-09-26T13:16:59.793Z,2.77
2018-09-26T13:19:32.783Z,2.20
2018-09-26T13:22:00.885Z,3.07
2018-09-26T13:24:35.437Z,3.37
2018-09-26T13:27:03.728Z,2.73
2018-09-26T13:29:33.538Z,2.77
2018-09-26T13:32:02.289Z,4.07
2018-09-26T13:34:30.488Z,2.40
2018-09-26T13:36:59.530Z,3.20
2018-09-26T13:39:27.920Z,2.93
2018-09-26T13:41:56.948Z,2.30
2018-09-26T13:44:25.608Z,2.80
2018-09-26T13:46:54.279Z,3.10
2018-09-26T13:49:22.840Z,3.53
2018-09-26T13:54:33.659Z,2.90
2018-09-26T13:57:02.040Z,3.90
2018-09-26T13:59:38.802Z,3.00
2018-09-26T14:02:07.424Z,3.60
2018-09-26T14:04:35.641Z,3.40
2018-09-26T14:07:03.995Z,3.23
2018-09-26T14:09:32.393Z,3.10
2018-09-26T14:12:00.744Z,2.40
2018-09-26T14:14:29.302Z,3.80
2018-09-26T14:16:58.105Z,3.13
2018-09-26T14:19:27.657Z,4.20
2018-09-26T14:21:56.679Z,2.90
2018-09-26T14:24:25.136Z,3.40
2018-09-26T14:26:54.904Z,3.07
2018-09-26T14:29:23.672Z,3.00
2018-09-26T14:31:52.704Z,4.93
2018-09-26T14:34:24.040Z,3.80
2018-09-26T14:36:52.981Z,3.90
2018-09-26T14:39:21.617Z,2.60
2018-09-26T14:41:51.034Z,3.57
2018-09-26T14:44:20.025Z,3.23
2018-09-26T14:46:48.905Z,2.67
2018-09-26T14:49:19.408Z,2.43
2018-09-26T14:51:48.507Z,2.57
2018-09-26T14:54:22.545Z,3.20
2018-09-26T14:56:51.338Z,2.90
2018-09-26T14:59:20.310Z,2.83
2018-09-26T15:01:49.265Z,3.47
2018-09-26T15:04:19.501Z,3.00
2018-09-26T15:06:48.454Z,3.80
2018-09-26T15:09:20.357Z,3.40
2018-09-26T15:11:51.007Z,4.10
2018-09-26T15:14:23.774Z,3.77
2018-09-26T15:16:52.458Z,2.87
2018-09-26T15:19:24.027Z,3.33
2018-09-26T15:21:52.829Z,3.53
2018-09-26T15:24:22.516Z,3.07
2018-09-26T15:26:51.640Z,2.97
2018-09-26T15:29:20.764Z,3.20
2018-09-26T15:31:50.654Z,2.60
2018-09-26T15:34:19.483Z,3.27
2018-09-26T15:36:52.810Z,3.13
2018-09-26T15:42:00.535Z,3.60
2018-09-26T15:44:28.782Z,4.20
2018-09-26T15:46:57.587Z,3.00
2018-09-26T15:49:28.372Z,3.57
2018-09-26T15:51:57.267Z,3.50
2018-09-26T15:54:26.046Z,3.90
2018-09-26T15:56:54.847Z,3.20
2018-09-26T16:04:48.636Z,3.47
2018-09-26T16:09:52.369Z,4.17
2018-09-26T16:12:25.052Z,4.73
2018-09-26T16:17:35.556Z,3.47
2018-09-26T16:20:08.689Z,4.43
2018-09-26T16:22:38.622Z,3.30
2018-09-26T16:25:08.135Z,5.00
2018-09-26T16:30:31.963Z,3.17
2018-09-26T16:33:00.516Z,3.80
2018-09-26T16:38:08.072Z,3.60
2018-09-26T16:46:02.903Z,3.70
2018-09-26T16:51:14.888Z,4.20
2018-09-26T16:53:48.328Z,5.00
2018-09-26T16:56:17.585Z,4.00
2018-09-26T16:58:48.158Z,4.20
2018-09-26T17:03:58.165Z,4.80
2018-09-26T17:06:26.828Z,5.23
2018-09-26T17:08:55.818Z,4.73
2018-09-26T17:17:30.208Z,5.20
2018-09-26T17:19:58.326Z,4.50
2018-09-26T17:25:11.972Z,3.90
2018-09-26T17:27:40.197Z,4.00
2018-09-26T17:30:17.963Z,5.83
2018-09-26T17:32:48.835Z,5.27
2018-09-26T17:35:17.877Z,4.70
2018-09-26T17:43:07.274Z,6.27
2018-09-26T17:45:37.137Z,6.80
2018-09-26T17:48:05.818Z,5.83
2018-09-26T17:50:36.002Z,5.43
2018-09-26T17:53:17.494Z,6.33
2018-09-26T17:55:50.262Z,6.23
2018-09-26T17:58:20.742Z,7.10
2018-09-26T18:11:35.456Z,6.60
2018-09-26T18:14:03.634Z,6.37
2018-09-26T18:16:32.320Z,7.00
2018-09-26T18:19:01.638Z,7.20
2018-09-26T18:21:29.740Z,6.60
2018-09-26T18:23:58.336Z,6.13
2018-09-26T18:29:07.442Z,6.67
2018-09-26T18:31:35.794Z,8.00
2018-09-26T18:39:20.021Z,7.23
2018-09-26T18:41:53.309Z,7.63
2018-09-26T18:44:22.573Z,8.00
2018-09-26T18:46:57.562Z,6.40
2018-09-26T18:49:26.082Z,7.63
2018-09-26T18:51:55.277Z,7.60
2018-09-26T18:59:47.731Z,6.30
2018-09-26T19:02:16.054Z,7.03
2018-09-26T19:04:44.405Z,6.63
2018-09-26T19:07:18.399Z,7.20
2018-09-26T19:09:47.345Z,6.50
2018-09-26T19:17:27.944Z,5.40
2018-09-26T19:22:48.363Z,5.80
2018-09-26T19:25:17.014Z,5.90
2018-09-26T19:27:45.194Z,5.27
2018-09-26T19:32:58.465Z,6.53
2018-09-26T19:38:06.411Z,4.80
2018-09-26T19:40:34.581Z,5.87
2018-09-26T19:43:13.569Z,5.00
2018-09-26T19:45:42.131Z,6.40
2018-09-26T19:53:48.393Z,8.57
2018-09-26T19:56:17.796Z,7.50
2018-09-26T19:58:46.379Z,8.70
2018-09-26T20:03:54.374Z,7.37
2018-09-26T20:06:22.815Z,7.40
2018-09-26T20:08:51.520Z,7.37
2018-09-26T20:11:20.549Z,6.50
2018-09-26T20:13:50.668Z,7.43
2018-09-26T20:16:19.545Z,7.03
2018-09-26T20:18:48.789Z,8.20
2018-09-26T20:21:17.846Z,8.40
2018-09-26T20:23:47.239Z,7.57
2018-09-26T20:26:15.528Z,6.93
2018-09-26T20:28:43.831Z,7.03
2018-09-26T20:31:12.378Z,8.50
2018-09-26T20:33:40.716Z,7.37
2018-09-26T20:36:09.013Z,7.67
2018-09-26T20:38:37.262Z,6.50
2018-09-26T20:41:05.400Z,7.07
2018-09-26T20:43:33.706Z,8.03
2018-09-26T20:46:01.785Z,5.93
2018-09-26T20:48:31.178Z,7.60
2018-09-26T20:50:59.800Z,7.30
2018-09-26T20:53:27.984Z,6.70
2018-09-26T20:55:56.414Z,7.17
2018-09-26T20:58:24.902Z,6.90
2018-09-26T21:00:53.496Z,6.80
2018-09-26T21:03:22.175Z,6.50
2018-09-26T21:05:50.770Z,7.67
2018-09-26T21:08:20.537Z,7.53
2018-09-26T21:10:49.479Z,5.80
2018-09-26T21:13:19.094Z,6.13
2018-09-26T21:15:47.896Z,6.37
2018-09-26T21:18:16.288Z,6.57
2018-09-26T21:20:44.949Z,6.83
2018-09-26T21:23:13.860Z,7.53
2018-09-26T21:25:41.927Z,8.70
2018-09-26T21:28:10.154Z,7.73
2018-09-26T21:30:38.490Z,8.33
2018-09-26T21:33:06.524Z,7.50
2018-09-26T21:35:34.703Z,8.47
2018-09-26T21:38:02.774Z,7.57
2018-09-26T21:40:30.919Z,8.43
2018-09-26T21:42:59.061Z,9.10
2018-09-26T21:45:27.381Z,9.40
2018-09-26T21:47:55.875Z,8.30
2018-09-26T21:50:24.321Z,7.80
2018-09-26T21:52:53.191Z,6.73
2018-09-26T21:55:22.116Z,7.50
2018-09-26T21:57:50.512Z,6.60
2018-09-26T22:00:18.869Z,7.50
2018-09-26T22:05:31.659Z,7.50
2018-09-26T22:07:59.878Z,6.60
2018-09-26T22:10:28.451Z,6.20
2018-09-26T22:12:58.009Z,6.03
2018-09-26T22:15:26.520Z,5.50
2018-09-26T22:17:55.527Z,6.63
2018-09-26T22:20:23.969Z,5.13
2018-09-26T22:22:52.263Z,5.70
2018-09-26T22:25:20.675Z,7.07
2018-09-26T22:27:49.245Z,4.73
2018-09-26T22:30:18.751Z,5.63
2018-09-26T22:32:47.323Z,4.90
2018-09-26T22:35:15.559Z,5.03
2018-09-26T22:37:43.930Z,4.83
2018-09-26T22:40:12.223Z,5.33
2018-09-26T22:42:40.399Z,4.77
2018-09-26T22:45:08.612Z,6.90
2018-09-26T22:47:36.809Z,5.17
2018-09-26T22:50:05.108Z,5.83
2018-09-26T22:52:33.525Z,4.83
2018-09-26T22:55:01.785Z,4.70
2018-09-26T22:57:30.050Z,4.87
2018-09-26T22:59:58.161Z,4.53
2018-09-26T23:02:26.452Z,4.60
2018-09-26T23:04:54.798Z,5.03
2018-09-26T23:07:23.310Z,4.43
2018-09-26T23:09:51.777Z,4.00
2018-09-26T23:12:20.195Z,3.90
2018-09-26T23:14:48.595Z,4.80
2018-09-26T23:17:17.960Z,3.73
2018-09-26T23:19:46.318Z,4.20
2018-09-26T23:22:14.916Z,3.70
2018-09-26T23:24:43.304Z,4.03
2018-09-26T23:27:11.739Z,3.77
2018-09-26T23:29:39.902Z,3.97
2018-09-26T23:32:07.954Z,3.90
2018-09-26T23:34:36.037Z,3.70
2018-09-26T23:37:04.155Z,3.50
2018-09-26T23:39:32.249Z,3.93
2018-09-26T23:42:00.371Z,3.90
2018-09-26T23:44:28.400Z,3.93
2018-09-26T23:46:56.568Z,3.90
2018-09-26T23:49:24.811Z,4.23
2018-09-26T23:51:53.217Z,3.40
2018-09-26T23:54:21.805Z,4.43
2018-09-26T23:56:51.011Z,3.30
2018-09-26T23:59:19.853Z,3.43
